createdAt,value
2022-12-03T09:05:46.722Z,6.43
2022-12-03T09:16:01.279Z,5.70
2022-12-03T09:26:06.050Z,15.63
2022-12-03T09:36:14.093Z,7.78
2022-12-03T09:46:18.889Z,4.85
2022-12-03T09:56:24.358Z,8.68
2022-12-03T10:06:28.408Z,4.40
2022-12-03T10:26:44.157Z,8.18
2022-12-03T10:36:55.959Z,6.60
2022-12-03T10:47:11.330Z,7.63
2022-12-03T10:57:16.100Z,6.60
2022-12-03T11:07:23.231Z,2.35
2022-12-03T11:17:56.483Z,9.00
2022-12-03T11:28:16.006Z,7.65
2022-12-03T11:38:43.271Z,6.68
2022-12-03T11:48:56.780Z,3.97
2022-12-03T11:59:05.567Z,9.07
2022-12-03T12:09:09.955Z,10.80
2022-12-03T12:19:37.649Z,9.60
2022-12-03T12:30:24.007Z,14.32
2022-12-03T12:40:45.338Z,15.57
2022-12-03T12:51:21.743Z,15.80
2022-12-03T13:01:31.611Z,11.93
2022-12-03T13:11:42.782Z,27.63
2022-12-03T13:21:47.362Z,31.77
2022-12-03T13:32:10.362Z,35.20
2022-12-03T13:42:40.028Z,29.33
2022-12-03T13:52:44.592Z,34.67
2022-12-03T14:02:49.496Z,13.00
2022-12-03T14:13:04.808Z,6.13
2022-12-03T14:23:08.789Z,7.13
2022-12-03T14:33:13.728Z,13.82
2022-12-03T14:43:27.180Z,24.75
2022-12-03T14:53:31.752Z,28.35
2022-12-03T15:03:37.136Z,4.43
2022-12-03T15:13:58.913Z,4.10
2022-12-03T15:24:06.113Z,3.05
2022-12-03T15:34:22.567Z,1.90
2022-12-03T15:44:33.963Z,2.50
2022-12-03T15:54:43.494Z,16.85
2022-12-03T16:05:01.030Z,28.02
2022-12-03T16:15:16.384Z,27.23
2022-12-03T16:25:32.312Z,29.55
2022-12-03T16:35:36.460Z,28.02
2022-12-03T16:46:03.611Z,30.15
2022-12-03T16:56:08.179Z,28.52
2022-12-03T17:06:12.143Z,28.38
2022-12-03T17:16:16.648Z,27.70
2022-12-03T17:26:21.036Z,29.73
2022-12-03T17:36:26.029Z,20.13
2022-12-03T17:46:41.193Z,15.45
2022-12-03T17:56:51.231Z,13.77
2022-12-03T18:07:06.620Z,9.88
2022-12-03T18:17:16.428Z,6.93
2022-12-03T18:27:24.585Z,5.57
2022-12-03T18:37:38.691Z,6.82
2022-12-03T18:47:43.391Z,8.70
2022-12-03T18:57:48.289Z,10.63
2022-12-03T19:07:55.906Z,11.18
2022-12-03T19:18:11.098Z,8.32
2022-12-03T19:28:20.263Z,7.28
2022-12-03T19:38:25.898Z,9.13
2022-12-03T19:48:31.890Z,8.05
2022-12-03T19:58:47.365Z,6.03
2022-12-03T20:09:02.169Z,7.57
2022-12-03T20:19:09.112Z,4.63
2022-12-03T20:29:14.636Z,4.45
2022-12-03T20:39:18.971Z,4.47
2022-12-03T20:49:23.473Z,6.03
2022-12-03T20:59:38.023Z,6.18
2022-12-03T21:09:42.243Z,13.90
2022-12-03T21:19:51.446Z,22.70
2022-12-03T21:30:05.791Z,11.35
2022-12-03T21:40:21.603Z,10.02
2022-12-03T21:50:30.556Z,6.50
2022-12-03T22:00:35.498Z,2.35
2022-12-03T22:10:40.558Z,4.10
2022-12-03T22:20:45.813Z,5.70
2022-12-03T22:30:50.231Z,6.80
2022-12-03T22:41:09.722Z,5.82
2022-12-03T22:51:24.627Z,11.70
2022-12-03T23:01:35.480Z,7.97
2022-12-03T23:11:40.048Z,3.35
2022-12-03T23:21:55.122Z,5.25
2022-12-03T23:31:59.607Z,7.25
2022-12-03T23:42:04.717Z,7.45
2022-12-03T23:52:09.156Z,3.85
